createdAt,value
2023-04-11T00:00:30.592Z,4.47
2023-04-11T00:03:00.316Z,4.47
2023-04-11T00:05:33.242Z,4.49
2023-04-11T00:07:59.762Z,4.53
2023-04-11T00:10:26.223Z,4.54
2023-04-11T00:12:56.740Z,4.50
2023-04-11T00:15:29.527Z,4.50
2023-04-11T00:17:58.436Z,4.50
2023-04-11T00:20:24.927Z,4.53
2023-04-11T00:22:54.012Z,4.54
2023-04-11T00:25:23.508Z,4.53
2023-04-11T00:27:50.096Z,4.49
2023-04-11T00:30:16.807Z,4.50
2023-04-11T00:32:45.987Z,4.50
2023-04-11T00:35:12.567Z,4.49
2023-04-11T00:37:39.369Z,4.46
2023-04-11T00:40:06.609Z,4.46
2023-04-11T00:42:33.673Z,4.48
2023-04-11T00:45:00.258Z,4.49
2023-04-11T00:47:26.945Z,4.47
2023-04-11T00:49:53.496Z,4.45
2023-04-11T00:52:20.056Z,4.39
2023-04-11T00:54:46.756Z,4.37
2023-04-11T00:57:13.316Z,4.35
2023-04-11T00:59:40.741Z,4.35
2023-04-11T01:02:08.177Z,4.39
2023-04-11T01:04:34.991Z,4.46
2023-04-11T01:07:06.184Z,4.46
2023-04-11T01:09:34.591Z,4.46
2023-04-11T01:12:03.014Z,4.46
2023-04-11T01:14:30.028Z,4.46
2023-04-11T01:16:57.268Z,4.48
2023-04-11T01:19:26.300Z,4.49
2023-04-11T01:21:54.019Z,4.52
2023-04-11T01:24:20.964Z,4.53
2023-04-11T01:26:47.577Z,4.52
2023-04-11T01:29:14.201Z,4.55
2023-04-11T01:31:40.862Z,4.60
2023-04-11T01:34:07.882Z,4.65
2023-04-11T01:36:34.668Z,4.64
2023-04-11T01:39:01.414Z,4.65
2023-04-11T01:41:31.310Z,4.69
2023-04-11T01:43:57.896Z,4.73
2023-04-11T01:46:25.179Z,4.76
2023-04-11T01:48:55.044Z,4.78
2023-04-11T01:51:21.750Z,4.76
2023-04-11T01:53:48.388Z,4.77
2023-04-11T01:56:15.236Z,4.76
2023-04-11T01:58:42.196Z,4.72
2023-04-11T02:01:09.040Z,4.70
2023-04-11T02:03:37.056Z,4.66
2023-04-11T02:06:03.990Z,4.60
2023-04-11T02:08:30.968Z,4.60
2023-04-11T02:10:57.613Z,4.57
2023-04-11T02:13:24.115Z,4.48
2023-04-11T02:15:50.622Z,4.41
2023-04-11T02:18:17.108Z,4.30
2023-04-11T02:20:43.616Z,4.26
2023-04-11T02:23:11.037Z,4.32
2023-04-11T02:25:38.996Z,4.40
2023-04-11T02:28:08.001Z,4.45
2023-04-11T02:30:34.757Z,4.49
2023-04-11T02:33:01.712Z,4.51
2023-04-11T02:35:28.395Z,4.55
2023-04-11T02:37:54.945Z,4.57
2023-04-11T02:40:21.434Z,4.60
2023-04-11T02:42:47.957Z,4.60
2023-04-11T02:45:14.476Z,4.62
2023-04-11T02:47:41.256Z,4.60
2023-04-11T02:50:08.659Z,4.61
2023-04-11T02:52:35.169Z,4.62
2023-04-11T02:55:01.744Z,4.62
2023-04-11T02:57:28.244Z,4.64
2023-04-11T02:59:54.759Z,4.64
2023-04-11T03:02:25.469Z,4.70
2023-04-11T03:04:52.087Z,4.73
2023-04-11T03:07:18.554Z,4.73
2023-04-11T03:09:45.138Z,4.75
2023-04-11T03:12:11.849Z,4.74
2023-04-11T03:14:38.347Z,4.74
2023-04-11T03:17:04.829Z,4.79
2023-04-11T03:19:31.365Z,4.88
2023-04-11T03:21:57.916Z,4.93
2023-04-11T03:24:24.410Z,4.99
2023-04-11T03:26:51.206Z,5.04
2023-04-11T03:29:17.729Z,5.06
2023-04-11T03:31:44.403Z,5.11
2023-04-11T03:34:10.962Z,5.15
2023-04-11T03:36:37.510Z,5.17
2023-04-11T03:39:04.156Z,5.21
2023-04-11T03:41:30.808Z,5.22
2023-04-11T03:43:57.373Z,5.22
2023-04-11T03:46:23.969Z,5.26
2023-04-11T03:48:50.589Z,5.28
2023-04-11T03:51:17.078Z,5.30
2023-04-11T03:53:43.593Z,5.35
2023-04-11T03:56:10.401Z,5.34
2023-04-11T03:58:37.104Z,5.33
2023-04-11T04:01:03.799Z,5.35
2023-04-11T04:03:30.620Z,5.33
2023-04-11T04:05:57.267Z,5.29
2023-04-11T04:08:23.770Z,5.30
2023-04-11T04:10:50.334Z,5.28
2023-04-11T04:13:16.863Z,5.25
2023-04-11T04:15:43.563Z,5.23
2023-04-11T04:18:10.381Z,5.24
2023-04-11T04:20:36.922Z,5.24
2023-04-11T04:23:06.018Z,5.22
2023-04-11T04:25:32.554Z,5.21
2023-04-11T04:28:00.949Z,5.25
2023-04-11T04:30:28.958Z,5.28
2023-04-11T04:32:58.876Z,5.31
2023-04-11T04:35:26.532Z,5.32
2023-04-11T04:37:54.087Z,5.39
2023-04-11T04:40:21.384Z,5.27
2023-04-11T04:42:58.161Z,5.29
2023-04-11T04:45:25.834Z,5.33
2023-04-11T04:47:52.378Z,5.37
2023-04-11T04:50:19.711Z,5.46
2023-04-11T04:52:46.597Z,5.54
2023-04-11T04:55:14.384Z,5.58
2023-04-11T04:57:40.914Z,5.62
2023-04-11T05:00:09.691Z,5.65
2023-04-11T05:02:37.840Z,5.69
2023-04-11T05:05:04.947Z,5.75
2023-04-11T05:07:31.555Z,5.77
2023-04-11T05:09:58.041Z,5.80
2023-04-11T05:12:27.169Z,5.82
2023-04-11T05:14:55.428Z,5.83
2023-04-11T05:17:24.710Z,5.81
2023-04-11T05:19:52.242Z,5.78
2023-04-11T05:22:18.744Z,5.81
2023-04-11T05:24:45.295Z,5.78
2023-04-11T05:27:13.338Z,5.76
2023-04-11T05:29:40.427Z,5.77
2023-04-11T05:32:07.037Z,5.82
2023-04-11T05:34:34.435Z,5.96
2023-04-11T05:37:01.434Z,6.14
2023-04-11T05:39:27.988Z,6.27
2023-04-11T05:41:54.485Z,6.36
2023-04-11T05:44:21.251Z,6.41
2023-04-11T05:46:47.784Z,6.39
2023-04-11T05:49:14.317Z,6.39
2023-04-11T05:51:40.994Z,6.38
2023-04-11T05:54:07.619Z,6.41
2023-04-11T05:56:35.265Z,6.41
2023-04-11T05:59:01.760Z,6.43
2023-04-11T06:01:28.226Z,6.40
2023-04-11T06:03:55.027Z,6.42
2023-04-11T06:06:21.824Z,6.42
2023-04-11T06:08:49.370Z,6.38
2023-04-11T06:11:16.012Z,6.37
2023-04-11T06:13:42.520Z,6.42
2023-04-11T06:16:09.374Z,6.49
2023-04-11T06:18:35.972Z,6.57
2023-04-11T06:21:02.475Z,6.65
2023-04-11T06:23:28.942Z,6.72
2023-04-11T06:25:55.575Z,6.76
2023-04-11T06:28:22.099Z,6.99
2023-04-11T06:30:48.631Z,7.27
2023-04-11T06:33:15.363Z,7.45
2023-04-11T06:35:41.885Z,7.67
2023-04-11T06:38:08.444Z,7.85
2023-04-11T06:40:35.315Z,7.94
2023-04-11T06:43:01.977Z,8.02
2023-04-11T06:45:28.746Z,8.11
2023-04-11T06:47:55.298Z,8.20
2023-04-11T06:50:21.918Z,8.21
2023-04-11T06:52:49.734Z,8.22
2023-04-11T06:55:16.777Z,8.26
2023-04-11T06:57:44.004Z,8.33
2023-04-11T07:00:12.794Z,8.40
2023-04-11T07:02:39.473Z,8.56
2023-04-11T07:05:06.717Z,8.62
2023-04-11T07:07:33.356Z,8.65
2023-04-11T07:09:59.839Z,8.64
2023-04-11T07:12:26.392Z,8.74
2023-04-11T07:14:53.113Z,8.82
2023-04-11T07:17:19.628Z,8.81
2023-04-11T07:19:46.644Z,8.88
2023-04-11T07:22:13.208Z,9.03
2023-04-11T07:24:39.678Z,9.12
2023-04-11T07:27:06.800Z,9.19
2023-04-11T07:29:33.299Z,9.36
2023-04-11T07:31:59.857Z,9.32
2023-04-11T07:34:26.624Z,9.53
2023-04-11T07:36:53.152Z,9.61
2023-04-11T07:39:19.707Z,9.82
2023-04-11T07:41:46.221Z,9.79
2023-04-11T07:44:12.778Z,9.86
2023-04-11T07:46:39.307Z,9.77
2023-04-11T07:49:06.112Z,9.76
2023-04-11T07:51:33.076Z,9.64
2023-04-11T07:53:59.751Z,9.58
2023-04-11T07:56:26.682Z,9.68
2023-04-11T07:58:53.263Z,9.71
2023-04-11T08:01:27.040Z,9.61
2023-04-11T08:03:54.795Z,9.49
2023-04-11T08:06:21.946Z,9.43
2023-04-11T08:08:49.229Z,9.32
2023-04-11T08:11:16.401Z,9.18
2023-04-11T08:13:43.899Z,9.15
2023-04-11T08:16:11.784Z,9.08
2023-04-11T08:18:42.015Z,9.08
2023-04-11T08:21:10.921Z,9.15
2023-04-11T08:23:37.765Z,9.24
2023-04-11T08:26:04.307Z,9.27
2023-04-11T08:28:30.805Z,9.32
2023-04-11T08:30:58.459Z,9.37
2023-04-11T08:33:28.077Z,9.54
2023-04-11T08:35:54.644Z,9.65
2023-04-11T08:38:21.178Z,9.80
2023-04-11T08:40:47.727Z,9.88
2023-04-11T08:43:14.420Z,9.99
2023-04-11T08:45:42.051Z,10.06
2023-04-11T08:48:10.861Z,10.00
2023-04-11T08:50:40.391Z,9.98
2023-04-11T08:53:08.401Z,9.91
2023-04-11T08:55:34.978Z,9.99
2023-04-11T08:58:02.911Z,10.07
2023-04-11T09:00:32.375Z,9.94
2023-04-11T09:03:01.385Z,9.84
2023-04-11T09:05:39.391Z,9.71
2023-04-11T09:08:08.448Z,9.63
2023-04-11T09:10:36.291Z,9.60
2023-04-11T09:13:18.310Z,9.67
2023-04-11T09:15:45.108Z,9.80
2023-04-11T09:18:31.028Z,9.80
2023-04-11T09:21:03.731Z,9.84
2023-04-11T09:23:30.375Z,9.98
2023-04-11T09:25:57.819Z,10.02
2023-04-11T09:28:24.733Z,10.18
2023-04-11T09:30:56.049Z,10.35
2023-04-11T09:33:24.527Z,10.43
2023-04-11T09:35:53.519Z,10.74
2023-04-11T09:38:31.192Z,10.73
2023-04-11T09:40:59.010Z,10.99
2023-04-11T09:43:26.647Z,11.52
2023-04-11T09:46:09.416Z,11.32
2023-04-11T09:48:46.389Z,11.24
2023-04-11T09:51:21.021Z,11.27
2023-04-11T09:53:59.013Z,10.96
2023-04-11T09:56:26.737Z,10.76
2023-04-11T09:58:55.117Z,10.84
2023-04-11T10:01:24.139Z,10.91
2023-04-11T10:03:51.410Z,10.76
2023-04-11T10:06:48.910Z,10.77
2023-04-11T10:09:16.743Z,10.67
2023-04-11T10:11:44.561Z,10.58
2023-04-11T10:14:36.823Z,10.28
2023-04-11T10:17:21.323Z,10.04
2023-04-11T10:19:54.077Z,9.97
2023-04-11T10:22:43.139Z,9.85
2023-04-11T10:25:16.882Z,9.69
2023-04-11T10:27:50.298Z,9.61
2023-04-11T10:30:17.039Z,9.66
2023-04-11T10:33:10.177Z,9.59
2023-04-11T10:35:59.992Z,9.58
2023-04-11T10:38:41.951Z,9.60
2023-04-11T10:41:31.572Z,9.40
2023-04-11T10:44:18.356Z,9.37
2023-04-11T10:46:50.568Z,9.31
2023-04-11T10:49:33.094Z,9.24
2023-04-11T10:52:18.332Z,9.18
2023-04-11T10:54:46.778Z,9.12
2023-04-11T10:57:13.896Z,9.06
2023-04-11T10:59:40.426Z,9.02
2023-04-11T11:02:07.284Z,8.97
2023-04-11T11:04:38.708Z,8.99
2023-04-11T11:07:07.544Z,8.98
2023-04-11T11:09:34.965Z,8.87
2023-04-11T11:12:08.274Z,8.82
2023-04-11T11:14:35.539Z,8.81
2023-04-11T11:17:03.186Z,8.80
2023-04-11T11:19:31.418Z,8.86
2023-04-11T11:22:04.799Z,8.94
2023-04-11T11:24:31.456Z,9.02
2023-04-11T11:26:58.997Z,9.30
2023-04-11T11:29:33.806Z,9.45
2023-04-11T11:32:03.519Z,10.07
2023-04-11T11:34:34.906Z,11.08
2023-04-11T11:37:06.537Z,12.46
2023-04-11T11:39:34.776Z,13.07
2023-04-11T11:42:01.803Z,13.73
2023-04-11T11:44:30.099Z,15.17
2023-04-11T11:47:12.512Z,16.78
2023-04-11T11:49:54.378Z,18.12
2023-04-11T11:52:39.748Z,18.89
2023-04-11T11:55:27.990Z,19.49
2023-04-11T11:57:54.667Z,21.33
2023-04-11T12:00:26.150Z,20.81
2023-04-11T12:02:54.057Z,20.43
2023-04-11T12:05:23.666Z,20.33
2023-04-11T12:07:54.697Z,19.04
2023-04-11T12:10:21.306Z,19.19
2023-04-11T12:12:53.982Z,21.33
2023-04-11T12:15:26.568Z,19.83
2023-04-11T12:17:54.855Z,18.05
2023-04-11T12:20:26.373Z,16.35
2023-04-11T12:22:54.668Z,15.26
2023-04-11T12:25:22.023Z,14.58
2023-04-11T12:27:48.633Z,13.98
2023-04-11T12:30:15.352Z,13.14
2023-04-11T12:32:42.482Z,12.97
2023-04-11T12:35:10.636Z,12.74
2023-04-11T12:37:37.975Z,12.59
2023-04-11T12:40:12.595Z,12.53
2023-04-11T12:42:53.150Z,12.84
2023-04-11T12:45:23.090Z,12.54
2023-04-11T12:47:49.654Z,11.91
2023-04-11T12:50:16.237Z,11.44
2023-04-11T12:52:42.994Z,11.02
2023-04-11T12:55:09.999Z,10.80
2023-04-11T12:57:36.814Z,11.14
2023-04-11T13:00:07.158Z,13.29
2023-04-11T13:02:42.075Z,15.79
2023-04-11T13:05:11.130Z,15.70
2023-04-11T13:07:37.971Z,15.05
2023-04-11T13:10:07.834Z,15.03
2023-04-11T13:12:39.676Z,16.35
2023-04-11T13:15:07.978Z,15.93
2023-04-11T13:17:34.651Z,17.76
2023-04-11T13:20:01.388Z,19.76
2023-04-11T13:22:27.947Z,20.66
2023-04-11T13:24:54.461Z,21.47
2023-04-11T13:27:22.161Z,18.55
2023-04-11T13:29:48.798Z,18.48
2023-04-11T13:32:15.591Z,17.76
2023-04-11T13:34:42.516Z,15.11
2023-04-11T13:37:09.219Z,14.69
2023-04-11T13:39:35.860Z,13.81
2023-04-11T13:42:02.558Z,13.71
2023-04-11T13:44:29.113Z,13.10
2023-04-11T13:46:55.922Z,12.53
2023-04-11T13:49:22.424Z,12.34
2023-04-11T13:51:48.978Z,12.12
2023-04-11T13:54:15.621Z,11.82
2023-04-11T13:56:42.247Z,11.83
2023-04-11T13:59:08.804Z,12.04
2023-04-11T14:01:35.364Z,12.58
2023-04-11T14:04:02.269Z,12.69
2023-04-11T14:06:28.956Z,12.81
2023-04-11T14:08:55.551Z,12.77
2023-04-11T14:11:22.132Z,12.81
2023-04-11T14:13:48.873Z,12.37
2023-04-11T14:16:15.584Z,11.92
2023-04-11T14:18:42.235Z,11.98
2023-04-11T14:21:08.874Z,12.11
2023-04-11T14:23:35.879Z,11.91
2023-04-11T14:26:02.489Z,11.80
2023-04-11T14:28:28.981Z,11.57
2023-04-11T14:30:56.954Z,11.53
2023-04-11T14:33:23.615Z,11.77
2023-04-11T14:35:50.975Z,11.82
2023-04-11T14:38:17.525Z,11.45
2023-04-11T14:40:44.593Z,11.15
2023-04-11T14:43:11.322Z,11.15
2023-04-11T14:45:38.168Z,11.21
2023-04-11T14:48:05.110Z,11.21
2023-04-11T14:50:32.455Z,11.15
2023-04-11T14:52:59.071Z,11.07
2023-04-11T14:55:25.747Z,10.97
2023-04-11T14:57:54.681Z,10.96
2023-04-11T15:00:22.601Z,10.79
2023-04-11T15:02:52.434Z,10.71
2023-04-11T15:05:20.024Z,10.76
2023-04-11T15:07:48.894Z,10.59
2023-04-11T15:10:18.046Z,10.43
2023-04-11T15:12:44.755Z,10.37
2023-04-11T15:15:12.073Z,10.33
2023-04-11T15:17:41.261Z,10.45
2023-04-11T15:20:09.667Z,10.40
2023-04-11T15:22:41.268Z,10.47
2023-04-11T15:25:10.418Z,10.95
2023-04-11T15:27:37.092Z,11.08
2023-04-11T15:30:04.877Z,11.08
2023-04-11T15:32:31.815Z,10.91
2023-04-11T15:34:59.250Z,10.64
2023-04-11T15:37:26.439Z,10.39
2023-04-11T15:39:53.068Z,10.30
2023-04-11T15:42:19.633Z,10.27
2023-04-11T15:44:46.165Z,10.31
2023-04-11T15:47:12.858Z,10.24
2023-04-11T15:49:39.818Z,10.14
2023-04-11T15:52:07.079Z,9.96
2023-04-11T15:54:33.891Z,9.88
2023-04-11T15:57:01.764Z,9.97
2023-04-11T15:59:28.526Z,9.98
2023-04-11T16:01:55.150Z,9.97
2023-04-11T16:04:21.870Z,10.08
2023-04-11T16:06:48.510Z,10.16
2023-04-11T16:09:15.633Z,10.11
2023-04-11T16:11:42.127Z,10.05
2023-04-11T16:14:08.608Z,10.00
2023-04-11T16:16:35.381Z,9.96
2023-04-11T16:19:02.009Z,9.85
2023-04-11T16:21:28.520Z,9.75
2023-04-11T16:23:55.402Z,9.66
2023-04-11T16:26:22.670Z,9.59
2023-04-11T16:28:49.533Z,9.50
2023-04-11T16:31:21.912Z,9.52
2023-04-11T16:33:48.465Z,9.52
2023-04-11T16:36:15.556Z,9.47
2023-04-11T16:38:42.161Z,9.47
2023-04-11T16:41:08.641Z,9.43
2023-04-11T16:43:35.197Z,9.39
2023-04-11T16:46:01.971Z,9.39
2023-04-11T16:48:30.315Z,9.36
2023-04-11T16:50:56.877Z,9.33
2023-04-11T16:53:23.349Z,9.38
2023-04-11T16:55:50.451Z,9.37
2023-04-11T16:58:17.029Z,9.37
2023-04-11T17:00:43.994Z,9.39
2023-04-11T17:03:10.804Z,9.35
2023-04-11T17:05:38.081Z,9.36
2023-04-11T17:08:04.623Z,9.39
2023-04-11T17:10:31.104Z,9.32
2023-04-11T17:12:58.563Z,9.30
2023-04-11T17:15:25.112Z,9.24
2023-04-11T17:17:51.636Z,9.27
2023-04-11T17:20:18.181Z,9.15
2023-04-11T17:22:45.006Z,9.04
2023-04-11T17:25:11.734Z,8.97
2023-04-11T17:27:38.891Z,8.95
2023-04-11T17:30:06.883Z,8.85
2023-04-11T17:32:35.277Z,8.85
2023-04-11T17:35:04.458Z,8.74
2023-04-11T17:37:30.989Z,8.72
2023-04-11T17:39:57.799Z,8.70
2023-04-11T17:42:24.299Z,8.62
2023-04-11T17:44:50.783Z,8.57
2023-04-11T17:47:17.622Z,8.61
2023-04-11T17:49:45.992Z,8.60
2023-04-11T17:52:12.493Z,8.60
2023-04-11T17:54:39.897Z,8.56
2023-04-11T17:57:06.918Z,8.59
2023-04-11T17:59:34.330Z,8.60
2023-04-11T18:02:01.024Z,8.60
2023-04-11T18:04:27.820Z,8.59
2023-04-11T18:06:55.025Z,8.53
2023-04-11T18:09:23.966Z,8.45
2023-04-11T18:11:50.516Z,8.35
2023-04-11T18:14:17.737Z,8.24
2023-04-11T18:16:46.551Z,8.13
2023-04-11T18:19:13.832Z,8.03
2023-04-11T18:21:41.001Z,7.94
2023-04-11T18:24:07.677Z,7.83
2023-04-11T18:26:35.402Z,7.74
2023-04-11T18:29:02.018Z,7.74
2023-04-11T18:31:28.726Z,7.78
2023-04-11T18:33:55.490Z,7.83
2023-04-11T18:36:22.582Z,7.85
2023-04-11T18:38:49.473Z,7.87
2023-04-11T18:41:17.390Z,7.92
2023-04-11T18:43:44.916Z,7.98
2023-04-11T18:46:11.480Z,8.04
2023-04-11T18:48:38.165Z,8.04
2023-04-11T18:51:05.185Z,7.96
2023-04-11T18:53:32.414Z,7.88
2023-04-11T18:56:02.888Z,7.82
2023-04-11T18:58:31.948Z,7.85
2023-04-11T19:01:06.609Z,7.86
2023-04-11T19:03:41.354Z,7.88
2023-04-11T19:06:08.531Z,7.88
2023-04-11T19:08:36.030Z,7.88
2023-04-11T19:11:02.838Z,7.86
2023-04-11T19:13:29.396Z,7.83
2023-04-11T19:15:56.545Z,7.79
2023-04-11T19:18:23.129Z,7.67
2023-04-11T19:20:49.669Z,7.51
2023-04-11T19:23:16.190Z,7.36
2023-04-11T19:25:42.908Z,7.28
2023-04-11T19:28:09.617Z,7.19
2023-04-11T19:30:36.236Z,7.08
2023-04-11T19:33:03.588Z,7.01
2023-04-11T19:35:30.678Z,6.92
2023-04-11T19:37:58.727Z,6.87
2023-04-11T19:40:27.017Z,6.75
2023-04-11T19:42:53.629Z,6.63
2023-04-11T19:45:20.395Z,6.55
2023-04-11T19:47:46.992Z,6.50
2023-04-11T19:50:13.789Z,6.47
2023-04-11T19:52:42.138Z,6.38
2023-04-11T19:55:12.268Z,6.28
2023-04-11T19:57:39.027Z,6.20
2023-04-11T20:00:13.681Z,6.09
2023-04-11T20:02:44.673Z,6.04
2023-04-11T20:05:16.453Z,6.02
2023-04-11T20:07:44.386Z,5.92
2023-04-11T20:10:12.216Z,5.78
2023-04-11T20:12:38.778Z,5.68
2023-04-11T20:15:05.756Z,5.62
2023-04-11T20:17:32.767Z,5.53
2023-04-11T20:19:59.375Z,5.48
2023-04-11T20:22:25.858Z,5.42
2023-04-11T20:24:52.515Z,5.35
2023-04-11T20:27:19.045Z,5.27
2023-04-11T20:29:45.911Z,5.22
2023-04-11T20:32:12.583Z,5.15
2023-04-11T20:34:39.122Z,5.14
2023-04-11T20:37:07.707Z,5.08
2023-04-11T20:39:34.435Z,4.98
2023-04-11T20:42:01.187Z,4.91
2023-04-11T20:44:28.733Z,4.82
2023-04-11T20:46:57.034Z,4.76
2023-04-11T20:49:28.179Z,4.68
2023-04-11T20:51:54.971Z,4.60
2023-04-11T20:54:21.896Z,4.55
2023-04-11T20:56:48.415Z,4.48
2023-04-11T20:59:14.893Z,4.43
2023-04-11T21:01:41.726Z,4.36
2023-04-11T21:04:09.662Z,4.30
2023-04-11T21:06:36.516Z,4.23
2023-04-11T21:09:04.204Z,4.16
2023-04-11T21:11:30.916Z,4.08
2023-04-11T21:13:57.575Z,4.03
2023-04-11T21:16:24.483Z,3.97
2023-04-11T21:18:51.080Z,3.92
2023-04-11T21:21:17.575Z,3.87
2023-04-11T21:23:44.042Z,3.78
2023-04-11T21:26:11.628Z,3.73
2023-04-11T21:28:38.350Z,3.70
2023-04-11T21:31:05.212Z,3.66
2023-04-11T21:33:31.754Z,3.64
2023-04-11T21:35:58.436Z,3.60
2023-04-11T21:38:25.066Z,3.64
2023-04-11T21:40:52.452Z,3.60
2023-04-11T21:43:18.981Z,3.50
2023-04-11T21:45:45.630Z,3.42
2023-04-11T21:48:12.234Z,3.36
2023-04-11T21:50:38.741Z,3.30
2023-04-11T21:53:05.300Z,3.27
2023-04-11T21:55:31.838Z,3.23
2023-04-11T21:57:58.528Z,3.22
2023-04-11T22:00:25.263Z,3.17
2023-04-11T22:02:51.895Z,3.12
2023-04-11T22:05:19.221Z,3.07
2023-04-11T22:07:48.439Z,3.04
2023-04-11T22:10:22.213Z,3.02
2023-04-11T22:12:49.140Z,2.97
2023-04-11T22:15:18.467Z,2.90
2023-04-11T22:17:46.217Z,2.85
2023-04-11T22:20:13.221Z,2.84
2023-04-11T22:22:39.725Z,2.80
2023-04-11T22:25:07.492Z,2.72
2023-04-11T22:27:34.612Z,2.69
2023-04-11T22:30:02.294Z,2.64
2023-04-11T22:32:30.083Z,2.60
2023-04-11T22:34:56.720Z,2.56
2023-04-11T22:37:23.290Z,2.55
2023-04-11T22:39:50.000Z,2.54
2023-04-11T22:42:16.859Z,2.51
2023-04-11T22:44:43.450Z,2.44
2023-04-11T22:47:13.370Z,2.42
2023-04-11T22:49:42.802Z,2.39
2023-04-11T22:52:14.103Z,2.40
2023-04-11T22:54:42.008Z,2.39
2023-04-11T22:57:08.519Z,2.31
2023-04-11T22:59:35.091Z,2.26
2023-04-11T23:02:01.719Z,2.21
2023-04-11T23:04:28.403Z,2.20
2023-04-11T23:06:54.981Z,2.15
2023-04-11T23:09:21.764Z,2.13
2023-04-11T23:11:48.864Z,2.10
2023-04-11T23:14:17.991Z,2.02
2023-04-11T23:16:45.081Z,1.93
2023-04-11T23:19:11.687Z,1.87
2023-04-11T23:21:38.234Z,1.83
2023-04-11T23:24:06.858Z,1.81
2023-04-11T23:26:33.767Z,1.82
2023-04-11T23:29:02.472Z,1.78
2023-04-11T23:31:30.330Z,1.71
2023-04-11T23:33:57.244Z,1.65
2023-04-11T23:36:24.058Z,1.59
2023-04-11T23:38:50.671Z,1.55
2023-04-11T23:41:17.264Z,1.51
2023-04-11T23:43:43.815Z,1.49
2023-04-11T23:46:10.965Z,1.49
2023-04-11T23:48:37.621Z,1.44
2023-04-11T23:51:04.365Z,1.38
2023-04-11T23:53:31.777Z,1.34
2023-04-11T23:55:58.381Z,1.33
2023-04-11T23:58:24.930Z,1.31
